Date,TemperatureHighF,TemperatureAvgF,TemperatureLowF,DewpointHighF,DewpointAvgF,DewpointLowF,HumidityHigh,HumidityAvg,HumidityLow,PressureMaxIn,PressureMinIn,WindSpeedMaxMPH,WindSpeedAvgMPH,GustSpeedMaxMPH,PrecipitationSumIn
2013-2-1,2.7,-5.0,-13.5,-1.6,-13.2,-20.9,82,67,52,30.33,30.08,8,2,12,0.00
2013-2-2,10.8,4.9,-0.8,5.6,-1.7,-6.5,85,74,57,30.20,30.00,6,1,8,0.00
2013-2-3,12.9,9.9,4.1,6.8,3.5,-1.7,85,75,60,30.11,30.00,8,2,12,0.00
2013-2-4,15.4,9.5,2.7,12.1,0.5,-6.1,91,67,52,30.11,29.77,6,2,13,0.00
2013-2-5,28.2,20.8,9.5,27.5,16.8,5.8,100,85,62,30.11,29.68,8,2,12,0.00
2013-2-6,24.8,15.5,4.5,22.4,13.0,1.3,98,89,84,30.13,29.96,6,1,11,0.00
2013-2-7,27.1,24.8,23.0,25.2,23.1,21.4,100,94,80,30.29,30.02,10,3,17,0.00
2013-2-8,26.8,22.0,14.0,22.4,16.3,11.2,92,79,57,30.40,30.24,8,2,15,0.00
2013-2-9,32.0,28.3,24.4,31.1,26.9,22.0,100,94,89,30.24,29.96,8,4,17,0.00
2013-2-10,32.5,29.9,27.5,32.5,29.8,27.5,100,100,97,29.97,29.33,8,2,18,0.00
2013-2-11,29.3,24.2,14.9,29.1,21.1,12.3,100,88,75,30.07,29.39,10,3,18,0.05
2013-2-12,33.8,23.6,13.3,23.7,18.6,10.7,95,82,63,30.07,29.83,13,3,16,0.07
2013-2-13,33.1,23.6,21.0,32.7,22.2,18.9,100,94,88,29.84,29.60,5,1,8,0.08
2013-2-14,32.4,25.0,12.7,32.4,19.6,3.1,100,81,52,30.21,29.63,6,1,11,0.02
2013-2-15,16.7,10.2,3.4,4.8,1.3,-2.0,81,67,52,30.33,30.20,8,3,14,0.00
2013-2-16,19.6,8.5,0.0,7.1,1.7,-3.5,87,74,53,30.28,28.72,5,1,8,0.00
2013-2-17,31.5,21.4,7.5,23.2,14.0,2.2,83,73,61,30.14,29.66,11,4,22,0.01
2013-2-18,32.9,20.4,7.2,32.9,15.8,2.1,100,82,73,29.84,29.57,11,5,21,0.00
2013-2-19,7.5,3.5,-1.8,2.3,-5.6,-10.9,79,65,53,30.39,29.84,11,4,21,0.00
2013-2-20,14.9,5.0,-7.1,0.5,-5.1,-13.0,76,63,52,30.48,30.38,5,1,10,0.00
2013-2-21,21.7,14.0,3.0,15.0,4.4,-2.2,82,66,52,30.48,30.13,7,2,14,0.00
2013-2-22,28.6,22.8,19.2,23.7,20.2,14.9,99,90,76,30.13,29.89,6,2,11,0.05
2013-2-23,32.5,24.1,17.8,26.5,21.1,15.9,100,88,71,29.99,29.88,8,2,11,0.00
2013-2-24,36.7,23.3,9.5,24.6,17.0,7.5,97,78,53,30.14,29.99,4,1,8,0.00
2013-2-25,37.0,27.9,20.1,24.1,20.5,16.1,88,74,56,30.14,30.06,4,0,6,0.00
2013-2-26,34.7,25.7,13.1,27.1,21.8,12.2,100,86,72,30.09,29.93,8,2,14,0.00
2013-2-27,40.1,31.6,27.0,26.9,24.8,21.6,90,77,52,30.08,29.92,9,4,15,0.00
2013-2-28,29.7,27.8,23.2,22.6,19.9,14.9,81,72,65,30.26,30.07,8,3,13,0.00